createdAt,value
2019-02-10T00:00:41.145Z,99554.13
2019-02-10T00:01:17.704Z,99546.78
2019-02-10T00:01:55.357Z,99548.75
2019-02-10T00:02:30.059Z,99545.94
2019-02-10T00:03:04.518Z,99553.98
2019-02-10T00:03:38.953Z,99542.23
2019-02-10T00:04:14.159Z,99542.23
2019-02-10T00:04:48.515Z,99541.20
2019-02-10T00:05:23.202Z,99542.41
2019-02-10T00:05:57.545Z,99543.05
2019-02-10T00:06:31.913Z,99537.23
2019-02-10T00:07:06.550Z,99537.23
2019-02-10T00:07:40.920Z,99534.75
2019-02-10T00:08:15.356Z,99549.88
2019-02-10T00:08:49.822Z,99543.37
2019-02-10T00:09:24.418Z,99544.25
2019-02-10T00:09:59.027Z,99541.89
2019-02-10T00:10:33.730Z,99545.73
2019-02-10T00:11:08.358Z,99545.73
2019-02-10T00:11:42.698Z,99549.16
2019-02-10T00:12:17.038Z,99543.09
2019-02-10T00:13:28.074Z,99542.45
2019-02-10T00:14:02.716Z,99545.02
2019-02-10T00:14:37.104Z,99544.14
2019-02-10T00:15:11.551Z,99544.14
2019-02-10T00:15:46.166Z,99546.83
2019-02-10T00:16:21.686Z,99536.87
2019-02-10T00:16:56.325Z,99548.88
2019-02-10T00:17:30.697Z,99548.84
2019-02-10T00:18:05.097Z,99546.19
2019-02-10T00:18:39.822Z,99543.73
2019-02-10T00:19:14.418Z,99546.11
2019-02-10T00:19:48.781Z,99544.83
2019-02-10T00:20:23.738Z,99541.97
2019-02-10T00:20:58.194Z,99543.89
2019-02-10T00:21:32.687Z,99544.54
2019-02-10T00:22:07.061Z,99541.53
2019-02-10T00:22:41.413Z,99538.12
2019-02-10T00:23:16.302Z,99537.63
2019-02-10T00:23:50.691Z,99536.83
2019-02-10T00:24:25.088Z,99530.05
2019-02-10T00:24:59.499Z,99531.65
2019-02-10T00:25:33.866Z,99522.89
2019-02-10T00:26:08.242Z,99532.05
2019-02-10T00:26:42.604Z,99532.38
2019-02-10T00:27:16.952Z,99527.80
2019-02-10T00:27:51.297Z,99534.66
2019-02-10T00:28:25.635Z,99527.87
2019-02-10T00:29:00.341Z,99532.58
2019-02-10T00:29:34.991Z,99528.20
2019-02-10T00:30:09.728Z,99520.48
2019-02-10T00:30:44.076Z,99525.02
2019-02-10T00:31:18.440Z,99518.16
2019-02-10T00:31:53.043Z,99515.44
2019-02-10T00:32:27.682Z,99512.38
2019-02-10T00:33:02.050Z,99511.50
2019-02-10T00:33:36.417Z,99499.41
2019-02-10T00:34:10.819Z,99499.41
2019-02-10T00:34:45.430Z,99506.34
2019-02-10T00:35:19.874Z,99509.80
2019-02-10T00:35:54.223Z,99502.30
2019-02-10T00:36:33.256Z,99498.20
2019-02-10T00:37:05.080Z,99501.81
2019-02-10T00:37:39.554Z,99501.81
2019-02-10T00:38:13.998Z,99499.73
2019-02-10T00:38:48.934Z,99501.81
2019-02-10T00:39:23.629Z,99502.58
2019-02-10T00:39:57.972Z,99487.80
2019-02-10T00:40:32.605Z,99485.23
2019-02-10T00:41:07.011Z,99488.69
2019-02-10T00:41:41.400Z,99488.52
2019-02-10T00:42:15.859Z,99488.52
2019-02-10T00:42:50.214Z,99486.39
2019-02-10T00:43:24.850Z,99484.30
2019-02-10T00:43:59.215Z,99486.76
2019-02-10T00:44:33.871Z,99495.70
2019-02-10T00:45:09.150Z,99497.75
2019-02-10T00:45:43.495Z,99483.26
2019-02-10T00:46:17.858Z,99483.26
2019-02-10T00:46:52.527Z,99488.00
2019-02-10T00:47:27.125Z,99488.45
2019-02-10T00:48:01.503Z,99488.45
2019-02-10T00:48:35.909Z,99491.86
2019-02-10T00:49:10.633Z,99486.65
2019-02-10T00:49:46.628Z,99490.91
2019-02-10T00:50:21.309Z,99483.59
2019-02-10T00:50:55.771Z,99483.59
2019-02-10T00:51:30.467Z,99490.95
2019-02-10T00:52:04.867Z,99482.42
2019-02-10T00:52:39.246Z,99489.04
2019-02-10T00:53:13.841Z,99486.34
2019-02-10T00:53:48.495Z,99485.11
2019-02-10T00:54:23.167Z,99488.64
2019-02-10T00:54:57.536Z,99474.20
2019-02-10T00:55:31.985Z,99482.35
2019-02-10T00:56:06.647Z,99481.30
2019-02-10T00:56:41.101Z,99481.30
2019-02-10T00:57:15.448Z,99476.50
2019-02-10T00:57:49.796Z,99470.52
2019-02-10T00:58:24.241Z,99480.89
2019-02-10T00:58:58.640Z,99476.64
2019-02-10T00:59:33.032Z,99468.39
2019-02-10T01:00:07.546Z,99468.39
2019-02-10T01:00:41.949Z,99470.52
2019-02-10T01:01:16.599Z,99477.44
2019-02-10T01:01:51.222Z,99474.33
2019-02-10T01:02:25.573Z,99473.76
2019-02-10T01:03:00.029Z,99470.70
2019-02-10T01:03:34.479Z,99467.63
2019-02-10T01:04:09.243Z,99468.87
2019-02-10T01:04:43.638Z,99461.16
2019-02-10T01:05:18.119Z,99460.36
2019-02-10T01:05:52.627Z,99460.36
2019-02-10T01:06:27.008Z,99458.45
2019-02-10T01:07:01.952Z,99458.45
2019-02-10T01:07:36.465Z,99460.48
2019-02-10T01:08:11.137Z,99468.16
2019-02-10T01:08:45.810Z,99468.16
2019-02-10T01:09:20.518Z,99453.11
2019-02-10T01:09:54.977Z,99459.63
2019-02-10T01:10:29.819Z,99459.63
2019-02-10T01:11:04.254Z,99446.66
2019-02-10T01:11:39.823Z,99454.17
2019-02-10T01:12:14.371Z,99451.86
2019-02-10T01:12:48.711Z,99445.21
2019-02-10T01:13:23.069Z,99449.42
2019-02-10T01:13:57.556Z,99448.41
2019-02-10T01:14:32.371Z,99448.41
2019-02-10T01:15:06.840Z,99452.95
2019-02-10T01:15:41.490Z,99443.02
2019-02-10T01:16:16.447Z,99449.70
2019-02-10T01:16:51.398Z,99452.77
2019-02-10T01:17:25.735Z,99446.83
2019-02-10T01:18:00.416Z,99436.92
2019-02-10T01:18:34.854Z,99443.97
2019-02-10T01:19:12.251Z,99441.45
2019-02-10T01:19:46.872Z,99441.45
2019-02-10T01:20:21.541Z,99436.14
2019-02-10T01:20:55.897Z,99430.31
2019-02-10T01:21:30.473Z,99434.02
2019-02-10T01:22:05.156Z,99434.28
2019-02-10T01:22:39.796Z,99436.64
2019-02-10T01:23:14.431Z,99437.84
2019-02-10T01:23:48.790Z,99436.75
2019-02-10T01:24:23.194Z,99436.75
2019-02-10T01:24:57.831Z,99428.84
2019-02-10T01:25:32.319Z,99428.84
2019-02-10T01:26:06.710Z,99436.95
2019-02-10T01:26:41.088Z,99436.95
2019-02-10T01:27:15.765Z,99435.91
2019-02-10T01:27:50.110Z,99435.91
2019-02-10T01:28:24.457Z,99434.07
2019-02-10T01:28:59.007Z,99433.25
2019-02-10T01:29:33.739Z,99430.17
2019-02-10T01:30:10.352Z,99428.29
2019-02-10T01:30:45.195Z,99427.89
2019-02-10T01:31:19.835Z,99431.12
2019-02-10T01:31:54.209Z,99431.12
2019-02-10T01:32:28.963Z,99427.55
2019-02-10T01:33:03.417Z,99427.55
2019-02-10T01:33:37.980Z,99423.39
2019-02-10T01:34:12.743Z,99421.74
2019-02-10T01:34:47.342Z,99421.74
2019-02-10T01:35:21.693Z,99425.12
2019-02-10T01:35:56.055Z,99417.95
2019-02-10T01:36:31.050Z,99417.95
2019-02-10T01:37:05.460Z,99417.28
2019-02-10T01:37:39.843Z,99417.28
2019-02-10T01:38:14.189Z,99406.31
2019-02-10T01:38:48.631Z,99410.99
2019-02-10T01:39:23.122Z,99398.62
2019-02-10T01:39:57.746Z,99398.62
2019-02-10T01:40:32.103Z,99395.50
2019-02-10T01:41:06.530Z,99392.53
2019-02-10T01:41:41.398Z,99395.90
2019-02-10T01:42:15.751Z,99393.02
2019-02-10T01:42:50.094Z,99391.67
2019-02-10T01:43:24.468Z,99385.15
2019-02-10T01:43:58.815Z,99391.42
2019-02-10T01:44:33.674Z,99381.63
2019-02-10T01:45:09.838Z,99381.63
2019-02-10T01:45:44.227Z,99378.20
2019-02-10T01:46:18.849Z,99376.28
2019-02-10T01:46:53.202Z,99385.21
2019-02-10T01:47:27.583Z,99385.21
2019-02-10T01:48:02.423Z,99381.34
2019-02-10T01:48:37.529Z,99380.84
2019-02-10T01:49:12.398Z,99381.54
2019-02-10T01:49:46.768Z,99382.63
2019-02-10T01:50:21.132Z,99371.77
2019-02-10T01:50:55.472Z,99373.19
2019-02-10T01:51:30.088Z,99372.05
2019-02-10T01:52:04.472Z,99372.50
2019-02-10T01:52:39.197Z,99365.05
2019-02-10T01:53:14.199Z,99364.55
2019-02-10T01:53:48.598Z,99360.09
2019-02-10T01:54:22.935Z,99353.57
2019-02-10T01:54:58.227Z,99353.57
2019-02-10T01:55:33.060Z,99353.93
2019-02-10T01:56:08.074Z,99348.33
2019-02-10T01:56:42.447Z,99358.95
2019-02-10T01:57:16.812Z,99349.59
2019-02-10T01:57:51.144Z,99349.59
2019-02-10T01:58:25.549Z,99339.56
2019-02-10T01:59:00.258Z,99341.44
2019-02-10T01:59:34.685Z,99341.44
2019-02-10T02:00:10.990Z,99347.09
2019-02-10T02:00:45.329Z,99347.09
2019-02-10T02:01:19.869Z,99342.26
2019-02-10T02:01:54.222Z,99340.24
2019-02-10T02:02:28.575Z,99347.20
2019-02-10T02:03:02.924Z,99348.50
2019-02-10T02:03:37.346Z,99338.86
2019-02-10T02:04:11.724Z,99338.86
2019-02-10T02:04:46.104Z,99333.56
2019-02-10T02:05:20.547Z,99342.92
2019-02-10T02:05:54.897Z,99330.48
2019-02-10T02:06:29.237Z,99331.56
2019-02-10T02:07:03.912Z,99331.56
2019-02-10T02:07:38.321Z,99327.78
2019-02-10T02:08:12.671Z,99321.02
2019-02-10T02:08:47.480Z,99321.02
2019-02-10T02:09:21.824Z,99311.81
2019-02-10T02:09:56.388Z,99316.42
2019-02-10T02:10:30.747Z,99310.97
2019-02-10T02:11:05.119Z,99307.29
2019-02-10T02:11:39.486Z,99294.41
2019-02-10T02:12:14.097Z,99293.50
2019-02-10T02:12:48.680Z,99293.50
2019-02-10T02:13:23.027Z,99295.54
2019-02-10T02:13:57.457Z,99287.19
2019-02-10T02:14:31.825Z,99286.46
2019-02-10T02:15:07.802Z,99284.60
2019-02-10T02:15:42.238Z,99277.92
2019-02-10T02:16:16.910Z,99282.86
2019-02-10T02:16:51.861Z,99282.86
2019-02-10T02:17:26.454Z,99276.94
2019-02-10T02:18:01.081Z,99276.94
2019-02-10T02:18:36.030Z,99271.48
2019-02-10T02:19:11.089Z,99275.34
2019-02-10T02:19:45.563Z,99271.88
2019-02-10T02:20:20.251Z,99271.88
2019-02-10T02:20:54.608Z,99261.02
2019-02-10T02:21:28.957Z,99270.94
2019-02-10T02:22:03.593Z,99266.12
2019-02-10T02:22:38.228Z,99264.83
2019-02-10T02:23:12.590Z,99270.16
2019-02-10T02:23:47.209Z,99270.16
2019-02-10T02:24:21.547Z,99262.64
2019-02-10T02:24:55.919Z,99267.07
2019-02-10T02:25:30.566Z,99271.05
2019-02-10T02:26:04.959Z,99271.27
2019-02-10T02:26:39.647Z,99263.59
2019-02-10T02:27:14.256Z,99263.59
2019-02-10T02:27:48.943Z,99260.84
2019-02-10T02:28:23.417Z,99266.06
2019-02-10T02:28:57.829Z,99265.09
2019-02-10T02:29:32.754Z,99265.09
2019-02-10T02:30:09.339Z,99258.33
2019-02-10T02:30:43.784Z,99260.78
2019-02-10T02:31:18.720Z,99260.78
2019-02-10T02:31:53.094Z,99246.66
2019-02-10T02:32:27.439Z,99246.66
2019-02-10T02:33:02.052Z,99237.59
2019-02-10T02:33:36.439Z,99232.22
2019-02-10T02:34:10.886Z,99232.22
2019-02-10T02:34:45.352Z,99245.77
2019-02-10T02:35:20.361Z,99240.28
2019-02-10T02:35:55.005Z,99248.25
2019-02-10T02:36:29.391Z,99248.25
2019-02-10T02:37:08.036Z,99244.84
2019-02-10T02:37:39.844Z,99244.84
2019-02-10T02:38:14.538Z,99242.53
2019-02-10T02:38:48.879Z,99220.51
2019-02-10T02:39:23.819Z,99220.51
2019-02-10T02:39:58.439Z,99239.89
2019-02-10T02:40:32.799Z,99224.82
2019-02-10T02:41:07.173Z,99218.23
2019-02-10T02:41:41.581Z,99223.92
2019-02-10T02:42:16.314Z,99226.34
2019-02-10T02:42:51.187Z,99215.92
2019-02-10T02:43:25.878Z,99215.92
2019-02-10T02:44:00.240Z,99215.53
2019-02-10T02:44:34.870Z,99222.07
2019-02-10T02:45:10.968Z,99207.96
2019-02-10T02:45:45.614Z,99211.67
2019-02-10T02:46:19.981Z,99210.26
2019-02-10T02:46:54.334Z,99210.26
2019-02-10T02:47:29.010Z,99212.38
2019-02-10T02:48:03.620Z,99212.38
2019-02-10T02:48:38.313Z,99203.69
2019-02-10T02:49:12.791Z,99226.23
2019-02-10T02:49:48.007Z,99205.50
2019-02-10T02:50:22.628Z,99203.04
2019-02-10T02:50:56.972Z,99214.36
2019-02-10T02:51:31.591Z,99209.08
2019-02-10T02:52:06.066Z,99209.08
2019-02-10T02:52:40.633Z,99212.44
2019-02-10T02:53:15.344Z,99196.91
2019-02-10T02:53:49.702Z,99196.91
2019-02-10T02:54:24.043Z,99195.98
2019-02-10T02:54:58.511Z,99195.98
2019-02-10T02:55:32.856Z,99198.32
2019-02-10T02:56:07.344Z,99198.32
2019-02-10T02:56:41.837Z,99187.06
2019-02-10T02:57:16.462Z,99201.86
2019-02-10T02:57:50.832Z,99201.86
2019-02-10T02:58:25.452Z,99196.64
2019-02-10T02:58:59.801Z,99188.59
2019-02-10T02:59:34.439Z,99188.59
2019-02-10T03:00:09.402Z,99182.23
2019-02-10T03:00:43.748Z,99183.91
2019-02-10T03:01:18.113Z,99177.83
2019-02-10T03:01:52.771Z,99177.83
2019-02-10T03:02:27.144Z,99168.70
2019-02-10T03:03:01.504Z,99172.77
2019-02-10T03:03:35.881Z,99172.77
2019-02-10T03:04:10.254Z,99161.47
2019-02-10T03:04:44.661Z,99168.52
2019-02-10T03:05:19.024Z,99168.52
2019-02-10T03:05:53.383Z,99154.57
2019-02-10T03:06:45.500Z,99141.11
2019-02-10T03:07:19.849Z,99141.11
2019-02-10T03:07:54.201Z,99155.77
2019-02-10T03:08:28.559Z,99153.94
2019-02-10T03:09:03.490Z,99156.06
2019-02-10T03:09:38.170Z,99155.64
2019-02-10T03:10:12.604Z,99144.39
2019-02-10T03:10:46.957Z,99144.39
2019-02-10T03:11:21.294Z,99139.69
2019-02-10T03:11:55.990Z,99148.81
2019-02-10T03:12:30.586Z,99148.81
2019-02-10T03:13:05.055Z,99147.00
2019-02-10T03:13:39.906Z,99147.00
2019-02-10T03:14:14.272Z,99142.17
2019-02-10T03:14:48.617Z,99142.17
2019-02-10T03:15:23.295Z,99140.88
2019-02-10T03:15:57.654Z,99133.98
2019-02-10T03:16:31.997Z,99133.98
2019-02-10T03:17:06.451Z,99129.34
2019-02-10T03:17:41.167Z,99125.22
2019-02-10T03:18:16.095Z,99129.95
2019-02-10T03:18:53.142Z,99120.34
2019-02-10T03:19:26.752Z,99120.34
2019-02-10T03:20:01.096Z,99112.90
2019-02-10T03:20:35.494Z,99110.48
2019-02-10T03:21:09.888Z,99103.65
2019-02-10T03:21:44.310Z,99103.65
2019-02-10T03:22:18.651Z,99091.89
2019-02-10T03:22:53.277Z,99123.13
2019-02-10T03:23:27.627Z,99106.38
2019-02-10T03:24:02.576Z,99100.77
2019-02-10T03:24:37.221Z,99104.51
2019-02-10T03:25:11.655Z,99096.84
2019-02-10T03:25:46.064Z,99093.58
2019-02-10T03:26:20.408Z,99093.58
2019-02-10T03:26:55.025Z,99078.55
2019-02-10T03:27:29.370Z,99078.55
2019-02-10T03:28:04.025Z,99096.08
2019-02-10T03:28:38.430Z,99086.59
2019-02-10T03:29:12.798Z,99084.39
2019-02-10T03:29:49.728Z,99090.25
2019-02-10T03:30:24.078Z,99090.99
2019-02-10T03:30:58.437Z,99090.99
2019-02-10T03:31:32.793Z,99077.56
2019-02-10T03:32:07.236Z,99071.05
2019-02-10T03:32:41.915Z,99071.05
2019-02-10T03:33:16.652Z,99080.01
2019-02-10T03:33:50.994Z,99080.01
2019-02-10T03:34:25.341Z,99064.67
2019-02-10T03:34:59.939Z,99077.56
2019-02-10T03:35:34.931Z,99078.78
2019-02-10T03:36:09.911Z,99078.78
2019-02-10T03:36:44.923Z,99075.16
2019-02-10T03:37:27.001Z,99075.16
2019-02-10T03:37:55.900Z,99072.72
2019-02-10T03:38:30.500Z,99068.61
2019-02-10T03:39:05.802Z,99071.36
2019-02-10T03:39:40.552Z,99062.63
2019-02-10T03:40:15.049Z,99072.94
2019-02-10T03:40:49.645Z,99078.48
2019-02-10T03:41:24.269Z,99073.58
2019-02-10T03:41:58.980Z,99073.58
2019-02-10T03:42:33.320Z,99083.95
2019-02-10T03:43:07.738Z,99083.95
2019-02-10T03:43:42.142Z,99069.47
2019-02-10T03:44:16.521Z,99067.51
2019-02-10T03:44:50.873Z,99067.51
2019-02-10T03:45:25.258Z,99064.75
2019-02-10T03:46:00.220Z,99066.20
2019-02-10T03:46:35.138Z,99060.43
2019-02-10T03:47:09.532Z,99060.43
2019-02-10T03:47:44.516Z,99055.89
2019-02-10T03:48:19.151Z,99053.91
2019-02-10T03:48:53.870Z,99053.91
2019-02-10T03:49:28.226Z,99051.25
2019-02-10T03:50:02.583Z,99029.46
2019-02-10T03:50:36.977Z,99041.31
2019-02-10T03:51:11.679Z,99031.97
2019-02-10T03:51:46.042Z,99031.97
2019-02-10T03:52:20.382Z,99036.09
2019-02-10T03:52:54.737Z,99046.86
2019-02-10T03:53:29.628Z,99029.34
2019-02-10T03:54:03.984Z,99042.45
2019-02-10T03:54:38.399Z,99025.15
2019-02-10T03:55:12.752Z,99025.15
2019-02-10T03:55:47.137Z,99036.83
2019-02-10T03:56:21.501Z,99043.27
2019-02-10T03:56:56.130Z,99033.34
2019-02-10T03:57:30.476Z,99028.66
2019-02-10T03:58:05.745Z,99034.09
2019-02-10T03:58:40.383Z,99034.09
2019-02-10T03:59:15.069Z,99038.21
2019-02-10T03:59:49.409Z,99025.70
2019-02-10T04:00:23.760Z,99025.70
2019-02-10T04:00:58.129Z,99025.39
2019-02-10T04:01:32.466Z,99019.77
2019-02-10T04:02:06.830Z,99009.91
2019-02-10T04:02:41.797Z,99022.03
2019-02-10T04:03:16.729Z,99029.83
2019-02-10T04:03:51.107Z,99025.00
2019-02-10T04:04:25.740Z,99030.23
2019-02-10T04:05:00.268Z,99030.23
2019-02-10T04:05:34.878Z,99019.47
2019-02-10T04:06:09.362Z,99015.59
2019-02-10T04:06:43.978Z,99019.63
2019-02-10T04:07:18.316Z,99019.63
2019-02-10T04:07:52.666Z,99022.66
2019-02-10T04:08:27.000Z,99018.56
2019-02-10T04:09:01.821Z,99018.56
2019-02-10T04:09:36.452Z,99013.47
2019-02-10T04:10:10.975Z,99017.51
2019-02-10T04:10:45.336Z,99012.03
2019-02-10T04:11:19.669Z,99012.03
2019-02-10T04:11:54.285Z,99013.84
2019-02-10T04:12:28.911Z,99022.95
2019-02-10T04:13:03.270Z,99017.58
2019-02-10T04:13:37.622Z,99017.58
2019-02-10T04:14:12.273Z,99013.09
2019-02-10T04:14:46.639Z,99020.30
2019-02-10T04:15:21.086Z,99004.16
2019-02-10T04:15:55.721Z,99009.84
2019-02-10T04:16:30.628Z,99014.93
2019-02-10T04:17:05.078Z,99012.94
2019-02-10T04:17:39.865Z,99004.90
2019-02-10T04:18:14.301Z,99004.90
2019-02-10T04:18:48.899Z,98997.09
2019-02-10T04:19:23.265Z,98997.84
2019-02-10T04:19:57.909Z,99004.75
2019-02-10T04:20:32.255Z,98989.42
2019-02-10T04:21:06.993Z,98987.68
2019-02-10T04:21:41.345Z,98998.09
2019-02-10T04:22:15.788Z,98979.28
2019-02-10T04:22:50.403Z,98979.05
2019-02-10T04:23:25.018Z,99001.28
2019-02-10T04:23:59.414Z,99001.28
2019-02-10T04:24:33.867Z,98997.40
2019-02-10T04:25:08.271Z,98988.07
2019-02-10T04:25:42.621Z,98981.09
2019-02-10T04:26:17.002Z,98981.09
2019-02-10T04:26:51.355Z,98975.03
2019-02-10T04:27:25.963Z,98986.94
2019-02-10T04:28:00.428Z,98986.94
2019-02-10T04:28:34.813Z,98976.00
2019-02-10T04:29:09.228Z,98976.00
2019-02-10T04:29:43.566Z,98990.36
2019-02-10T04:30:18.178Z,98990.36
2019-02-10T04:30:52.637Z,98985.94
2019-02-10T04:31:27.294Z,98982.77
2019-02-10T04:32:01.667Z,98969.95
2019-02-10T04:32:36.461Z,98983.44
2019-02-10T04:33:11.116Z,98982.77
2019-02-10T04:33:45.765Z,98971.00
2019-02-10T04:34:20.366Z,98971.00
2019-02-10T04:34:54.704Z,98972.37
2019-02-10T04:35:29.303Z,98965.55
2019-02-10T04:36:03.677Z,98960.70
2019-02-10T04:36:38.092Z,98960.70
2019-02-10T04:37:12.476Z,98961.89
2019-02-10T04:37:46.891Z,98961.89
2019-02-10T04:38:21.240Z,98965.30
2019-02-10T04:38:55.926Z,98953.95
2019-02-10T04:39:30.269Z,98953.95
2019-02-10T04:40:05.044Z,98951.89
2019-02-10T04:40:39.622Z,98959.80
2019-02-10T04:41:13.993Z,98965.30
2019-02-10T04:41:48.430Z,98959.70
2019-02-10T04:42:22.772Z,98969.73
2019-02-10T04:42:57.125Z,98969.73
2019-02-10T04:43:31.677Z,98956.67
2019-02-10T04:44:06.069Z,98956.67
2019-02-10T04:44:40.548Z,98955.45
2019-02-10T04:45:14.895Z,98960.23
2019-02-10T04:45:49.323Z,98960.23
2019-02-10T04:46:23.959Z,98955.63
2019-02-10T04:46:58.564Z,98952.27
2019-02-10T04:47:32.941Z,98953.25
2019-02-10T04:48:07.322Z,98953.81
2019-02-10T04:48:41.717Z,98953.81
2019-02-10T04:49:16.344Z,98945.38
2019-02-10T04:49:50.677Z,98945.38
2019-02-10T04:50:25.011Z,98954.08
2019-02-10T04:50:59.342Z,98951.30
2019-02-10T04:51:33.722Z,98937.95
2019-02-10T04:52:08.110Z,98953.11
2019-02-10T04:52:42.514Z,98938.48
2019-02-10T04:53:16.853Z,98933.33
2019-02-10T04:53:51.464Z,98934.47
2019-02-10T04:54:25.808Z,98934.47
2019-02-10T04:55:00.535Z,98949.00
2019-02-10T04:55:34.921Z,98931.20
2019-02-10T04:56:19.630Z,98932.28
2019-02-10T04:56:53.967Z,98924.06
2019-02-10T04:57:28.635Z,98924.06
2019-02-10T04:58:02.986Z,98918.09
2019-02-10T04:58:37.646Z,98918.09
2019-02-10T04:59:12.253Z,98926.28
2019-02-10T04:59:46.602Z,98919.67
2019-02-10T05:00:20.939Z,98919.67
2019-02-10T05:00:55.282Z,98922.48
2019-02-10T05:01:29.924Z,98915.52
2019-02-10T05:02:04.637Z,98928.62
2019-02-10T05:02:39.006Z,98919.28
2019-02-10T05:03:13.635Z,98919.28
2019-02-10T05:03:48.003Z,98912.95
2019-02-10T05:04:22.334Z,98917.62
2019-02-10T05:04:56.667Z,98907.41
2019-02-10T05:05:31.024Z,98919.01
2019-02-10T05:06:05.684Z,98911.11
2019-02-10T05:06:40.316Z,98919.60
2019-02-10T05:07:14.971Z,98914.23
2019-02-10T05:07:54.426Z,98913.68
2019-02-10T05:08:25.384Z,98905.81
2019-02-10T05:09:00.009Z,98906.33
2019-02-10T05:09:34.604Z,98906.33
2019-02-10T05:10:09.732Z,98889.89
2019-02-10T05:10:44.693Z,98889.89
2019-02-10T05:11:19.291Z,98897.70
2019-02-10T05:11:54.058Z,98899.95
2019-02-10T05:12:28.394Z,98899.95
2019-02-10T05:13:02.766Z,98888.29
2019-02-10T05:13:37.147Z,98885.88
2019-02-10T05:14:11.561Z,98885.88
2019-02-10T05:14:45.866Z,98883.20
2019-02-10T05:15:20.794Z,98888.46
2019-02-10T05:15:55.385Z,98881.01
2019-02-10T05:16:30.000Z,98882.23
2019-02-10T05:17:04.406Z,98882.23
2019-02-10T05:17:39.044Z,98874.88
2019-02-10T05:18:13.666Z,98876.48
2019-02-10T05:18:47.998Z,98876.48
2019-02-10T05:19:22.686Z,98870.11
2019-02-10T05:19:57.404Z,98870.11
2019-02-10T05:20:31.747Z,98874.50
2019-02-10T05:21:06.732Z,98864.57
2019-02-10T05:21:41.151Z,98862.06
2019-02-10T05:22:15.493Z,98857.22
2019-02-10T05:22:49.829Z,98865.55
2019-02-10T05:23:24.184Z,98871.08
2019-02-10T05:24:03.474Z,98860.50
2019-02-10T05:24:34.838Z,98864.36
2019-02-10T05:25:09.498Z,98864.36
2019-02-10T05:25:43.862Z,98865.41
2019-02-10T05:26:18.211Z,98854.34
2019-02-10T05:26:52.570Z,98860.88
2019-02-10T05:27:27.229Z,98860.78
2019-02-10T05:28:01.644Z,98852.45
2019-02-10T05:28:36.045Z,98852.45
2019-02-10T05:29:10.757Z,98856.25
2019-02-10T05:29:48.591Z,98858.45
2019-02-10T05:30:22.944Z,98858.45
2019-02-10T05:30:57.327Z,98843.95
2019-02-10T05:31:32.037Z,98847.96
2019-02-10T05:32:06.476Z,98840.33
2019-02-10T05:32:40.845Z,98829.64
2019-02-10T05:33:15.189Z,98829.64
2019-02-10T05:33:49.536Z,98833.51
2019-02-10T05:34:24.139Z,98825.39
2019-02-10T05:34:58.530Z,98822.05
2019-02-10T05:35:32.971Z,98822.05
2019-02-10T05:36:07.687Z,98816.69
2019-02-10T05:36:42.092Z,98824.11
2019-02-10T05:37:16.470Z,98820.69
2019-02-10T05:37:50.918Z,98824.38
2019-02-10T05:38:25.264Z,98824.38
2019-02-10T05:38:59.631Z,98817.88
2019-02-10T05:39:33.995Z,98817.88
2019-02-10T05:40:08.529Z,98809.16
2019-02-10T05:40:43.154Z,98809.16
2019-02-10T05:41:17.802Z,98812.50
2019-02-10T05:41:52.451Z,98807.73
2019-02-10T05:42:27.073Z,98801.42
2019-02-10T05:43:01.443Z,98796.27
2019-02-10T05:43:35.827Z,98796.27
2019-02-10T05:44:10.283Z,98801.05
2019-02-10T05:44:44.698Z,98803.75
2019-02-10T05:45:19.070Z,98803.75
2019-02-10T05:45:53.434Z,98810.81
2019-02-10T05:46:28.060Z,98794.27
2019-02-10T05:47:02.469Z,98792.45
2019-02-10T05:47:36.909Z,98792.45
2019-02-10T05:48:11.436Z,98788.90
2019-02-10T05:48:46.059Z,98788.90
2019-02-10T05:49:20.427Z,98783.72
2019-02-10T05:49:54.810Z,98786.80
2019-02-10T05:50:29.159Z,98785.36
2019-02-10T05:51:03.523Z,98787.53
2019-02-10T05:51:37.927Z,98787.53
2019-02-10T05:52:12.359Z,98777.33
2019-02-10T05:52:46.997Z,98782.81
2019-02-10T05:53:21.619Z,98770.37
2019-02-10T05:53:56.319Z,98759.70
2019-02-10T05:54:30.632Z,98771.00
2019-02-10T05:55:05.187Z,98769.72
2019-02-10T05:55:39.606Z,98769.72
2019-02-10T05:56:14.093Z,98767.89
2019-02-10T05:56:48.434Z,98767.89
2019-02-10T05:57:23.404Z,98767.85
2019-02-10T05:57:57.815Z,98755.76
2019-02-10T05:58:32.402Z,98755.76
2019-02-10T05:59:07.049Z,98756.75
2019-02-10T05:59:42.084Z,98751.73
2019-02-10T06:00:16.547Z,98747.64
2019-02-10T06:00:50.899Z,98747.64
2019-02-10T06:02:07.516Z,98752.39
2019-02-10T06:02:41.898Z,98746.47
2019-02-10T06:03:16.286Z,98746.47
2019-02-10T06:03:50.653Z,98739.68
2019-02-10T06:04:24.990Z,98739.68
2019-02-10T06:05:19.811Z,98757.17
2019-02-10T06:05:54.448Z,98758.77
2019-02-10T06:06:28.813Z,98731.00
2019-02-10T06:07:06.240Z,98738.55
2019-02-10T06:07:40.895Z,98738.59
2019-02-10T06:08:15.270Z,98738.59
2019-02-10T06:08:49.593Z,98724.47
2019-02-10T06:09:23.968Z,98724.47
2019-02-10T06:09:58.431Z,98713.63
2019-02-10T06:10:32.799Z,98718.55
2019-02-10T06:11:07.451Z,98723.18
2019-02-10T06:11:41.866Z,98730.09
2019-02-10T06:12:16.616Z,98725.66
2019-02-10T06:12:51.471Z,98725.66
2019-02-10T06:13:25.897Z,98723.45
2019-02-10T06:14:00.248Z,98734.23
2019-02-10T06:14:34.783Z,98734.23
2019-02-10T06:15:09.589Z,98717.83
2019-02-10T06:15:43.959Z,98726.41
2019-02-10T06:16:18.315Z,98727.92
2019-02-10T06:16:52.684Z,98717.03
2019-02-10T06:17:27.056Z,98717.03
2019-02-10T06:18:01.833Z,98713.00
2019-02-10T06:18:36.197Z,98707.39
2019-02-10T06:19:10.871Z,98717.25
2019-02-10T06:19:45.248Z,98718.16
2019-02-10T06:20:19.627Z,98718.16
2019-02-10T06:20:54.314Z,98709.59
2019-02-10T06:21:28.741Z,98708.00
2019-02-10T06:22:03.139Z,98715.59
2019-02-10T06:22:37.543Z,98715.59
2019-02-10T06:23:11.929Z,98707.28
2019-02-10T06:23:46.623Z,98718.81
2019-02-10T06:24:21.235Z,98705.39
2019-02-10T06:24:55.695Z,98705.39
2019-02-10T06:25:30.094Z,98696.18
2019-02-10T06:26:04.731Z,98718.87
2019-02-10T06:26:39.108Z,98701.06
2019-02-10T06:27:13.498Z,98715.02
2019-02-10T06:27:47.879Z,98703.86
2019-02-10T06:28:22.218Z,98703.86
2019-02-10T06:28:56.576Z,98696.13
2019-02-10T06:29:31.170Z,98685.42
2019-02-10T06:30:06.568Z,98687.65
2019-02-10T06:30:41.283Z,98687.65
2019-02-10T06:31:15.634Z,98691.34
2019-02-10T06:31:50.009Z,98680.36
2019-02-10T06:32:24.386Z,98681.20
2019-02-10T06:32:58.750Z,98693.56
2019-02-10T06:33:33.421Z,98693.54
2019-02-10T06:34:08.068Z,98681.22
2019-02-10T06:34:42.714Z,98681.22
2019-02-10T06:35:17.667Z,98687.73
2019-02-10T06:35:52.004Z,98687.73
2019-02-10T06:36:26.446Z,98681.48
2019-02-10T06:37:01.092Z,98683.70
2019-02-10T06:37:35.887Z,98681.51
2019-02-10T06:38:10.232Z,98684.79
2019-02-10T06:38:44.882Z,98677.42
2019-02-10T06:39:19.228Z,98677.80
2019-02-10T06:39:53.857Z,98677.80
2019-02-10T06:40:28.200Z,98678.72
2019-02-10T06:41:02.819Z,98676.95
2019-02-10T06:41:37.206Z,98677.99
2019-02-10T06:42:11.938Z,98680.58
2019-02-10T06:42:46.287Z,98665.80
2019-02-10T06:43:20.623Z,98657.05
2019-02-10T06:43:54.953Z,98657.05
2019-02-10T06:44:29.567Z,98669.14
2019-02-10T06:45:04.031Z,98654.03
2019-02-10T06:45:38.675Z,98656.98
2019-02-10T06:46:13.070Z,98655.94
2019-02-10T06:46:47.968Z,98654.39
2019-02-10T06:47:22.604Z,98650.44
2019-02-10T06:47:57.850Z,98650.44
2019-02-10T06:48:32.173Z,98631.78